Time;durP1;ratioP1;P1;durP2;ratioP2;P2;SDS_P1;SDS_P2;PMS_P1;PMS_P2;Temp;Humidity;BMP_temperature;BMP_pressure;BME280_temperature;BME280_humidity;BME280_pressure;Samples;Min_cycle;Max_cycle;Signal;HPM_P1;HPM_P2
2023/01/27 03:47:38;;;;;;;7.93;2.50;;;4.60;99.90;;;;;;4845781;29;20068;-96
2023/01/27 04:08:39;;;;;;;;;;;;;;;;;;;;;
2023/01/27 04:24:02;;;;;;;6.28;2.17;;;4.50;99.90;;;;;;4792305;29;20055;-95
2023/01/27 04:26:40;;;;;;;4.47;2.10;;;4.60;99.90;;;;;;4755500;30;20405;-96
2023/01/27 04:29:41;;;;;;;;;;;;;;;;;;;;;
2023/01/27 04:37:15;;;;;;;;;;;;;;;;;;;;;
2023/01/27 04:41:03;;;;;;;;;;;;;;;;;;;;;
2023/01/27 04:55:52;;;;;;;4.50;1.90;;;4.50;99.90;;;;;;4743337;30;20067;-95
2023/01/27 05:11:31;;;;;;;6.07;2.00;;;4.50;99.90;;;;;;4826959;29;20502;-94
2023/01/27 05:29:18;;;;;;;5.35;2.00;;;4.40;99.90;;;;;;5796580;23;20024;-96
2023/01/27 05:39:51;;;;;;;9.80;2.40;;;4.40;99.90;;;;;;4893404;23;20629;-96
2023/01/27 06:16:59;;;;;;;;;;;;;;;;;;;;;
2023/01/27 09:23:04;;;;;;;6.78;2.30;;;4.30;99.90;;;;;;4249492;23;20338;31
2023/01/27 09:25:51;;;;;;;9.98;2.50;;;4.20;99.90;;;;;;4804453;29;20054;-91
2023/01/27 09:28:17;;;;;;;6.20;2.33;;;4.30;99.90;;;;;;4823777;29;20179;-96
2023/01/27 09:31:11;;;;;;;;;;;;;;;;;;;;;
2023/01/27 09:34:24;;;;;;;8.00;2.50;;;4.30;99.90;;;;;;4804349;23;20058;-96
2023/01/27 09:40:45;;;;;;;;;;;4.40;99.90;;;;;;4790351;29;20089;-95
2023/01/27 09:46:44;;;;;;;7.65;2.60;;;4.30;99.90;;;;;;4861644;23;20403;-95
2023/01/27 09:53:55;;;;;;;5.22;2.28;;;4.30;99.90;;;;;;4794778;24;20058;-95
2023/01/27 09:57:10;;;;;;;10.48;2.40;;;4.40;99.90;;;;;;4827225;29;20376;-95
2023/01/27 10:00:00;;;;;;;6.70;2.50;;;4.40;99.90;;;;;;4828079;29;20062;-95
2023/01/27 10:03:03;;;;;;;6.47;2.65;;;4.40;99.90;;;;;;4805533;29;20054;-96
2023/01/27 10:05:50;;;;;;;7.50;2.17;;;4.40;99.90;;;;;;4791050;29;20056;-96
2023/01/27 10:49:40;;;;;;;;;;;;;;;;;;;;;
2023/01/27 11:46:37;;;;;;;4.95;1.77;;;4.90;99.90;;;;;;4774112;29;20090;-92
2023/01/27 11:49:35;;;;;;;5.35;1.75;;;4.90;99.90;;;;;;4794651;29;20110;-91
2023/01/27 11:52:26;;;;;;;5.18;1.70;;;4.90;99.90;;;;;;4781827;30;20059;-92
2023/01/27 11:55:18;;;;;;;4.38;1.88;;;4.90;99.90;;;;;;4768141;29;20047;-92
2023/01/27 11:58:31;;;;;;;5.93;1.58;;;4.90;99.90;;;;;;4879865;24;20050;-92
2023/01/27 12:01:10;;;;;;;6.32;1.52;;;4.90;99.90;;;;;;4742980;30;20094;-92
2023/01/27 12:04:08;;;;;;;6.55;1.90;;;4.90;99.90;;;;;;4748256;30;20418;-91
2023/01/27 12:06:45;;;;;;;4.65;1.92;;;4.90;99.90;;;;;;4752226;30;20105;-93
2023/01/27 12:09:32;;;;;;;5.30;1.98;;;5.00;99.90;;;;;;4738029;30;20088;-92
2023/01/27 12:12:25;;;;;;;3.72;1.90;;;4.90;99.90;;;;;;4743652;30;20118;-91
2023/01/27 12:15:04;;;;;;;3.37;1.80;;;4.90;99.90;;;;;;4787408;24;20050;-92
2023/01/27 12:17:51;;;;;;;7.55;1.80;;;4.90;99.90;;;;;;4832822;29;20510;-92
2023/01/27 12:21:04;;;;;;;7.65;2.22;;;4.90;99.90;;;;;;4824900;29;20041;-92
2023/01/27 12:27:04;;;;;;;6.68;2.25;;;5.00;99.90;;;;;;4838371;29;20511;-91
2023/01/27 12:29:44;;;;;;;5.88;2.38;;;5.00;99.90;;;;;;4817933;29;20125;-92
2023/01/27 12:32:38;;;;;;;3.47;2.03;;;4.90;99.90;;;;;;4826922;29;20163;-91
2023/01/27 12:35:32;;;;;;;6.28;2.10;;;5.00;99.90;;;;;;4846919;24;20061;-91
2023/01/27 12:38:30;;;;;;;4.95;2.30;;;5.00;99.90;;;;;;4852390;29;20046;-91
2023/01/27 12:41:23;;;;;;;4.88;2.42;;;4.90;99.90;;;;;;4821532;29;20045;-91
2023/01/27 12:44:16;;;;;;;4.95;2.17;;;5.00;99.90;;;;;;4848339;24;20078;-91
2023/01/27 12:46:58;;;;;;;3.88;2.10;;;5.00;99.90;;;;;;4835491;24;20076;-91
2023/01/27 12:49:31;;;;;;;4.20;2.30;;;5.00;99.90;;;;;;4832550;29;20057;-92
2023/01/27 12:52:02;;;;;;;6.40;2.38;;;5.00;99.90;;;;;;4826838;29;20060;-91
2023/01/27 12:54:33;;;;;;;6.43;2.67;;;5.00;99.90;;;;;;4832490;29;20041;-92
2023/01/27 12:57:14;;;;;;;7.15;2.80;;;5.00;99.90;;;;;;4862573;29;20085;-92
2023/01/27 12:59:56;;;;;;;4.63;2.70;;;5.00;99.90;;;;;;4861458;29;20049;-91
2023/01/27 13:02:24;;;;;;;9.00;2.67;;;5.10;99.90;;;;;;4859536;23;20513;-89
2023/01/27 13:05:00;;;;;;;5.63;2.65;;;5.10;99.90;;;;;;4827143;29;20061;-89
2023/01/27 13:07:52;;;;;;;5.18;2.78;;;5.10;99.90;;;;;;4825516;29;20137;-89
2023/01/27 13:10:24;;;;;;;4.18;2.55;;;5.10;99.90;;;;;;4826266;29;20391;-89
2023/01/27 13:12:55;;;;;;;4.70;2.47;;;5.10;99.90;;;;;;4842842;29;20049;-89
2023/01/27 13:15:27;;;;;;;5.75;2.60;;;5.10;99.90;;;;;;4842545;29;20049;-90
2023/01/27 13:18:20;;;;;;;7.07;2.45;;;5.10;99.90;;;;;;4842936;29;20042;-90
2023/01/27 13:21:14;;;;;;;5.43;2.72;;;5.10;99.90;;;;;;4808423;29;20510;-89
2023/01/27 13:23:40;;;;;;;5.10;2.60;;;5.10;99.90;;;;;;4816009;29;20061;-89
2023/01/27 13:26:06;;;;;;;6.05;2.70;;;5.10;99.90;;;;;;4843396;29;20124;-90
2023/01/27 13:28:58;;;;;;;4.30;2.72;;;5.10;99.90;;;;;;4825978;29;20152;-89
2023/01/27 13:31:45;;;;;;;5.03;2.40;;;5.10;99.90;;;;;;4843173;29;20061;-89
2023/01/27 13:34:23;;;;;;;4.97;2.75;;;5.00;99.90;;;;;;4842180;29;20042;-90
2023/01/27 13:37:27;;;;;;;5.50;2.83;;;5.00;99.90;;;;;;4826747;29;20053;-88
2023/01/27 13:40:20;;;;;;;5.80;2.90;;;5.00;99.90;;;;;;4825925;29;20041;-88
2023/01/27 13:43:11;;;;;;;7.43;3.38;;;5.00;99.90;;;;;;4824970;29;20054;-88
2023/01/27 13:45:54;;;;;;;4.43;2.50;;;5.10;99.90;;;;;;4841701;29;20402;-88
2023/01/27 13:48:31;;;;;;;4.38;2.50;;;5.00;99.90;;;;;;4841433;29;20046;-88
2023/01/27 13:51:24;;;;;;;4.22;2.53;;;5.00;99.90;;;;;;4842877;29;20046;-91
2023/01/27 14:00:26;;;;;;;;;;;;;;;;;;;;;
2023/01/27 14:03:50;;;;;;;5.13;2.38;;;5.00;99.90;;;;;;4862093;23;20061;-91
2023/01/27 14:18:27;;;;;;;4.93;2.70;;;5.00;99.90;;;;;;4792113;29;20066;-90
2023/01/27 14:21:16;;;;;;;4.50;2.50;;;5.00;99.90;;;;;;4834543;23;20141;-90
2023/01/27 14:24:28;;;;;;;4.00;2.53;;;5.00;99.90;;;;;;4807299;29;20054;-92
2023/01/27 14:30:47;;;;;;;5.20;3.00;;;5.00;99.90;;;;;;4878906;23;20674;-90
2023/01/27 14:49:55;;;;;;;10.95;5.18;;;4.90;99.90;;;;;;5748043;23;20058;-96
2023/01/27 16:44:56;;;;;;;6.45;3.13;;;4.80;99.90;;;;;;5113816;23;20051;-95
2023/01/27 17:15:43;;;;;;;6.65;3.25;;;4.70;99.90;;;;;;5921666;23;20860;31
2023/01/27 20:07:37;;;;;;;9.82;7.32;;;4.20;99.90;;;;;;5910679;23;20032;31
